sensor_id;sensor_type;location;lat;lon;timestamp;temperature;humidity
16829;DHT22;8531;48.078;11.968;2024-01-15T00:01:57;0.00;99.90
16829;DHT22;8531;48.078;11.968;2024-01-15T00:04:22;0.00;99.90
16829;DHT22;8531;48.078;11.968;2024-01-15T00:06:49;0.00;99.90
16829;DHT22;8531;48.078;11.968;2024-01-15T00:09:15;0.00;99.90
16829;DHT22;8531;48.078;11.968;2024-01-15T00:11:42;0.00;99.90
16829;DHT22;8531;48.078;11.968;2024-01-15T00:14:07;0.00;99.90
16829;DHT22;8531;48.078;11.968;2024-01-15T00:16:33;0.00;99.90
16829;DHT22;8531;48.078;11.968;2024-01-15T00:18:59;0.00;99.90
16829;DHT22;8531;48.078;11.968;2024-01-15T00:21:24;-0.10;99.90
16829;DHT22;8531;48.078;11.968;2024-01-15T00:23:50;-0.10;99.90
16829;DHT22;8531;48.078;11.968;2024-01-15T00:26:16;-0.10;99.90
16829;DHT22;8531;48.078;11.968;2024-01-15T00:28:42;-0.10;99.90
16829;DHT22;8531;48.078;11.968;2024-01-15T00:31:07;-0.10;99.90
16829;DHT22;8531;48.078;11.968;2024-01-15T00:33:33;-0.10;99.90
16829;DHT22;8531;48.078;11.968;2024-01-15T00:35:59;-0.10;99.90
16829;DHT22;8531;48.078;11.968;2024-01-15T00:38:25;-0.10;99.90
16829;DHT22;8531;48.078;11.968;2024-01-15T00:40:50;-0.10;99.90
16829;DHT22;8531;48.078;11.968;2024-01-15T00:43:16;-0.10;99.90
16829;DHT22;8531;48.078;11.968;2024-01-15T00:45:44;-0.10;99.90
16829;DHT22;8531;48.078;11.968;2024-01-15T00:48:10;-0.10;99.90
16829;DHT22;8531;48.078;11.968;2024-01-15T00:50:35;-0.10;99.90
16829;DHT22;8531;48.078;11.968;2024-01-15T00:53:01;-0.20;99.90
16829;DHT22;8531;48.078;11.968;2024-01-15T00:55:28;-0.10;99.90
16829;DHT22;8531;48.078;11.968;2024-01-15T00:57:54;-0.20;99.90
16829;DHT22;8531;48.078;11.968;2024-01-15T01:00:20;-0.20;99.90
16829;DHT22;8531;48.078;11.968;2024-01-15T01:02:46;-0.20;99.90
16829;DHT22;8531;48.078;11.968;2024-01-15T01:05:11;-0.20;99.90
16829;DHT22;8531;48.078;11.968;2024-01-15T01:07:37;-0.20;99.90
16829;DHT22;8531;48.078;11.968;2024-01-15T01:10:03;-0.10;99.90
16829;DHT22;8531;48.078;11.968;2024-01-15T01:12:29;-0.10;99.90
16829;DHT22;8531;48.078;11.968;2024-01-15T01:14:55;0.00;99.90
16829;DHT22;8531;48.078;11.968;2024-01-15T01:17:21;0.00;99.90
16829;DHT22;8531;48.078;11.968;2024-01-15T01:19:47;0.00;99.90
16829;DHT22;8531;48.078;11.968;2024-01-15T01:22:12;0.00;99.90
16829;DHT22;8531;48.078;11.968;2024-01-15T01:24:38;0.00;99.90
16829;DHT22;8531;48.078;11.968;2024-01-15T01:27:04;0.00;99.90
16829;DHT22;8531;48.078;11.968;2024-01-15T01:29:29;-0.10;99.90
16829;DHT22;8531;48.078;11.968;2024-01-15T01:31:55;-0.10;99.90
16829;DHT22;8531;48.078;11.968;2024-01-15T01:34:22;-0.20;99.90
16829;DHT22;8531;48.078;11.968;2024-01-15T01:36:47;-0.20;99.90
16829;DHT22;8531;48.078;11.968;2024-01-15T01:39:13;-0.30;99.90
16829;DHT22;8531;48.078;11.968;2024-01-15T01:41:39;-0.40;99.90
16829;DHT22;8531;48.078;11.968;2024-01-15T01:44:05;-0.50;99.90
16829;DHT22;8531;48.078;11.968;2024-01-15T01:46:31;-0.50;99.90
16829;DHT22;8531;48.078;11.968;2024-01-15T01:48:57;-0.60;99.90
16829;DHT22;8531;48.078;11.968;2024-01-15T01:51:24;-0.70;99.90
16829;DHT22;8531;48.078;11.968;2024-01-15T01:53:50;-0.70;99.90
16829;DHT22;8531;48.078;11.968;2024-01-15T01:56:17;-0.70;99.90
16829;DHT22;8531;48.078;11.968;2024-01-15T01:58:44;-0.80;99.90
16829;DHT22;8531;48.078;11.968;2024-01-15T02:01:11;-0.80;99.90
16829;DHT22;8531;48.078;11.968;2024-01-15T02:03:39;-0.80;99.90
16829;DHT22;8531;48.078;11.968;2024-01-15T02:06:06;-0.80;99.90
16829;DHT22;8531;48.078;11.968;2024-01-15T02:08:31;-0.90;99.90
16829;DHT22;8531;48.078;11.968;2024-01-15T02:10:57;-0.90;99.90
16829;DHT22;8531;48.078;11.968;2024-01-15T02:13:23;-0.90;99.90
16829;DHT22;8531;48.078;11.968;2024-01-15T02:15:48;-0.90;99.90
16829;DHT22;8531;48.078;11.968;2024-01-15T02:18:14;-1.00;99.90
16829;DHT22;8531;48.078;11.968;2024-01-15T02:20:40;-1.00;99.90
16829;DHT22;8531;48.078;11.968;2024-01-15T02:23:09;-1.00;99.90
16829;DHT22;8531;48.078;11.968;2024-01-15T02:25:43;-1.00;99.90
16829;DHT22;8531;48.078;11.968;2024-01-15T02:28:15;-1.00;99.90
16829;DHT22;8531;48.078;11.968;2024-01-15T02:30:42;-1.00;99.90
16829;DHT22;8531;48.078;11.968;2024-01-15T02:33:08;-1.00;99.90
16829;DHT22;8531;48.078;11.968;2024-01-15T02:35:35;-1.00;99.90
16829;DHT22;8531;48.078;11.968;2024-01-15T02:38:04;-1.00;99.90
16829;DHT22;8531;48.078;11.968;2024-01-15T02:40:30;-0.90;99.90
16829;DHT22;8531;48.078;11.968;2024-01-15T02:42:56;-0.90;99.90
16829;DHT22;8531;48.078;11.968;2024-01-15T02:45:22;-0.90;99.90
16829;DHT22;8531;48.078;11.968;2024-01-15T02:47:48;-0.90;99.90
16829;DHT22;8531;48.078;11.968;2024-01-15T02:50:14;-0.90;99.90
16829;DHT22;8531;48.078;11.968;2024-01-15T02:52:41;-0.90;99.90
16829;DHT22;8531;48.078;11.968;2024-01-15T02:55:07;-0.90;99.90
16829;DHT22;8531;48.078;11.968;2024-01-15T02:57:32;-0.90;99.90
16829;DHT22;8531;48.078;11.968;2024-01-15T02:59:58;-0.90;99.90
16829;DHT22;8531;48.078;11.968;2024-01-15T03:02:24;-0.90;99.90
16829;DHT22;8531;48.078;11.968;2024-01-15T03:04:49;-0.90;99.90
16829;DHT22;8531;48.078;11.968;2024-01-15T03:07:15;-1.00;99.90
16829;DHT22;8531;48.078;11.968;2024-01-15T03:09:41;-1.00;99.90
16829;DHT22;8531;48.078;11.968;2024-01-15T03:12:07;-1.00;99.90
16829;DHT22;8531;48.078;11.968;2024-01-15T03:14:32;-1.00;99.90
16829;DHT22;8531;48.078;11.968;2024-01-15T03:16:58;-1.00;99.90
16829;DHT22;8531;48.078;11.968;2024-01-15T03:19:24;-1.00;99.90
16829;DHT22;8531;48.078;11.968;2024-01-15T03:21:49;-1.00;99.90
16829;DHT22;8531;48.078;11.968;2024-01-15T03:24:15;-1.00;99.90
16829;DHT22;8531;48.078;11.968;2024-01-15T03:26:40;-1.00;99.90
16829;DHT22;8531;48.078;11.968;2024-01-15T03:29:06;-1.00;99.90
16829;DHT22;8531;48.078;11.968;2024-01-15T03:31:32;-1.00;99.90
16829;DHT22;8531;48.078;11.968;2024-01-15T03:33:58;-1.00;99.90
16829;DHT22;8531;48.078;11.968;2024-01-15T03:36:24;-1.00;99.90
16829;DHT22;8531;48.078;11.968;2024-01-15T03:38:49;-1.00;99.90
16829;DHT22;8531;48.078;11.968;2024-01-15T03:41:15;-1.00;99.90
16829;DHT22;8531;48.078;11.968;2024-01-15T03:43:41;-1.00;99.90
16829;DHT22;8531;48.078;11.968;2024-01-15T03:46:07;-1.00;99.90
16829;DHT22;8531;48.078;11.968;2024-01-15T03:48:32;-1.00;99.90
16829;DHT22;8531;48.078;11.968;2024-01-15T03:50:58;-0.90;99.90
16829;DHT22;8531;48.078;11.968;2024-01-15T03:53:24;-0.90;99.90
16829;DHT22;8531;48.078;11.968;2024-01-15T03:55:51;-0.90;99.90
16829;DHT22;8531;48.078;11.968;2024-01-15T03:58:17;-0.90;99.90
16829;DHT22;8531;48.078;11.968;2024-01-15T04:00:43;-0.90;99.90
16829;DHT22;8531;48.078;11.968;2024-01-15T04:03:09;-0.90;99.90
16829;DHT22;8531;48.078;11.968;2024-01-15T04:05:35;-1.00;99.90
16829;DHT22;8531;48.078;11.968;2024-01-15T04:08:00;-0.90;99.90
16829;DHT22;8531;48.078;11.968;2024-01-15T04:10:26;-1.00;99.90
16829;DHT22;8531;48.078;11.968;2024-01-15T04:12:52;-0.90;99.90
16829;DHT22;8531;48.078;11.968;2024-01-15T04:15:17;-1.00;99.90
16829;DHT22;8531;48.078;11.968;2024-01-15T04:17:43;-1.00;99.90
16829;DHT22;8531;48.078;11.968;2024-01-15T04:20:09;-1.00;99.90
16829;DHT22;8531;48.078;11.968;2024-01-15T04:22:35;-1.00;99.90
16829;DHT22;8531;48.078;11.968;2024-01-15T04:25:01;-1.00;99.90
16829;DHT22;8531;48.078;11.968;2024-01-15T04:27:27;-1.00;99.90
16829;DHT22;8531;48.078;11.968;2024-01-15T04:29:53;-1.00;99.90
16829;DHT22;8531;48.078;11.968;2024-01-15T04:32:19;-1.00;99.90
16829;DHT22;8531;48.078;11.968;2024-01-15T04:34:45;-1.00;99.90
16829;DHT22;8531;48.078;11.968;2024-01-15T04:37:11;-0.90;99.90
16829;DHT22;8531;48.078;11.968;2024-01-15T04:39:36;-0.90;99.90
16829;DHT22;8531;48.078;11.968;2024-01-15T04:42:02;-1.00;99.90
16829;DHT22;8531;48.078;11.968;2024-01-15T04:44:29;-1.00;99.90
16829;DHT22;8531;48.078;11.968;2024-01-15T04:46:54;-1.00;99.90
16829;DHT22;8531;48.078;11.968;2024-01-15T04:49:20;-1.00;99.90
16829;DHT22;8531;48.078;11.968;2024-01-15T04:51:46;-1.00;99.90
16829;DHT22;8531;48.078;11.968;2024-01-15T04:54:11;-0.90;99.90
16829;DHT22;8531;48.078;11.968;2024-01-15T04:56:37;-1.00;99.90
16829;DHT22;8531;48.078;11.968;2024-01-15T04:59:03;-1.00;99.90
16829;DHT22;8531;48.078;11.968;2024-01-15T05:01:32;-0.90;99.90
16829;DHT22;8531;48.078;11.968;2024-01-15T05:03:58;-0.90;99.90
16829;DHT22;8531;48.078;11.968;2024-01-15T05:06:24;-0.90;99.90
16829;DHT22;8531;48.078;11.968;2024-01-15T05:08:49;-0.90;99.90
16829;DHT22;8531;48.078;11.968;2024-01-15T05:11:15;-0.90;99.90
16829;DHT22;8531;48.078;11.968;2024-01-15T05:13:41;-0.90;99.90
16829;DHT22;8531;48.078;11.968;2024-01-15T05:16:06;-0.90;99.90
16829;DHT22;8531;48.078;11.968;2024-01-15T05:18:32;-0.90;99.90
16829;DHT22;8531;48.078;11.968;2024-01-15T05:20:58;-0.90;99.90
16829;DHT22;8531;48.078;11.968;2024-01-15T05:23:23;-0.90;99.90
16829;DHT22;8531;48.078;11.968;2024-01-15T05:25:49;-1.00;99.90
16829;DHT22;8531;48.078;11.968;2024-01-15T05:28:15;-1.00;99.90
16829;DHT22;8531;48.078;11.968;2024-01-15T05:30:40;-1.00;99.90
16829;DHT22;8531;48.078;11.968;2024-01-15T05:33:06;-1.00;99.90
16829;DHT22;8531;48.078;11.968;2024-01-15T05:35:33;-0.90;99.90
16829;DHT22;8531;48.078;11.968;2024-01-15T05:37:59;-0.90;99.90
16829;DHT22;8531;48.078;11.968;2024-01-15T05:40:24;-0.90;99.90
16829;DHT22;8531;48.078;11.968;2024-01-15T05:42:50;-0.90;99.90
16829;DHT22;8531;48.078;11.968;2024-01-15T05:45:16;-0.90;99.90
16829;DHT22;8531;48.078;11.968;2024-01-15T05:47:41;-0.90;99.90
16829;DHT22;8531;48.078;11.968;2024-01-15T05:50:08;-0.90;99.90
16829;DHT22;8531;48.078;11.968;2024-01-15T05:52:33;-0.90;99.90
16829;DHT22;8531;48.078;11.968;2024-01-15T05:54:59;-0.90;99.90
16829;DHT22;8531;48.078;11.968;2024-01-15T05:57:25;-0.90;99.90
16829;DHT22;8531;48.078;11.968;2024-01-15T05:59:50;-0.90;99.90
16829;DHT22;8531;48.078;11.968;2024-01-15T06:02:16;-0.80;99.90
16829;DHT22;8531;48.078;11.968;2024-01-15T06:04:42;-0.80;99.90
16829;DHT22;8531;48.078;11.968;2024-01-15T06:07:08;-0.80;99.90
16829;DHT22;8531;48.078;11.968;2024-01-15T06:09:33;-0.90;99.90
16829;DHT22;8531;48.078;11.968;2024-01-15T06:11:59;-0.90;99.90
16829;DHT22;8531;48.078;11.968;2024-01-15T06:14:25;-0.90;99.90
16829;DHT22;8531;48.078;11.968;2024-01-15T06:16:51;-0.90;99.90
16829;DHT22;8531;48.078;11.968;2024-01-15T06:19:17;-0.90;99.90
16829;DHT22;8531;48.078;11.968;2024-01-15T06:21:43;-0.90;99.90
16829;DHT22;8531;48.078;11.968;2024-01-15T06:24:08;-0.90;99.90
16829;DHT22;8531;48.078;11.968;2024-01-15T06:26:35;-0.90;99.90
16829;DHT22;8531;48.078;11.968;2024-01-15T06:29:01;-0.90;99.90
16829;DHT22;8531;48.078;11.968;2024-01-15T06:31:28;-0.80;99.90
16829;DHT22;8531;48.078;11.968;2024-01-15T06:33:55;-0.90;99.90
16829;DHT22;8531;48.078;11.968;2024-01-15T06:36:20;-0.80;99.90
16829;DHT22;8531;48.078;11.968;2024-01-15T06:38:46;-0.80;99.90
16829;DHT22;8531;48.078;11.968;2024-01-15T06:41:12;-0.90;99.90
16829;DHT22;8531;48.078;11.968;2024-01-15T06:43:37;-0.90;99.90
16829;DHT22;8531;48.078;11.968;2024-01-15T06:46:03;-0.80;99.90
16829;DHT22;8531;48.078;11.968;2024-01-15T06:48:29;-0.90;99.90
16829;DHT22;8531;48.078;11.968;2024-01-15T06:50:54;-0.80;99.90
16829;DHT22;8531;48.078;11.968;2024-01-15T06:53:20;-0.90;99.90
16829;DHT22;8531;48.078;11.968;2024-01-15T06:55:46;-0.80;99.90
16829;DHT22;8531;48.078;11.968;2024-01-15T06:58:12;-0.90;99.90
16829;DHT22;8531;48.078;11.968;2024-01-15T07:00:37;-0.90;99.90
16829;DHT22;8531;48.078;11.968;2024-01-15T07:03:03;-0.90;99.90
16829;DHT22;8531;48.078;11.968;2024-01-15T07:05:29;-0.90;99.90
16829;DHT22;8531;48.078;11.968;2024-01-15T07:07:56;-0.90;99.90
16829;DHT22;8531;48.078;11.968;2024-01-15T07:10:21;-0.80;99.90
16829;DHT22;8531;48.078;11.968;2024-01-15T07:12:47;-0.90;99.90
16829;DHT22;8531;48.078;11.968;2024-01-15T07:15:13;-0.90;99.90
16829;DHT22;8531;48.078;11.968;2024-01-15T07:17:40;-0.90;99.90
16829;DHT22;8531;48.078;11.968;2024-01-15T07:20:09;-0.90;99.90
16829;DHT22;8531;48.078;11.968;2024-01-15T07:22:38;-0.90;99.90
16829;DHT22;8531;48.078;11.968;2024-01-15T07:25:04;-0.90;99.90
16829;DHT22;8531;48.078;11.968;2024-01-15T07:27:31;-1.00;99.90
16829;DHT22;8531;48.078;11.968;2024-01-15T07:29:57;-0.90;99.90
16829;DHT22;8531;48.078;11.968;2024-01-15T07:32:22;-0.90;99.90
16829;DHT22;8531;48.078;11.968;2024-01-15T07:34:48;-0.90;99.90
16829;DHT22;8531;48.078;11.968;2024-01-15T07:37:14;-0.90;99.90
16829;DHT22;8531;48.078;11.968;2024-01-15T07:39:40;-0.90;99.90
16829;DHT22;8531;48.078;11.968;2024-01-15T07:42:06;-0.90;99.90
16829;DHT22;8531;48.078;11.968;2024-01-15T07:44:32;-0.90;99.90
16829;DHT22;8531;48.078;11.968;2024-01-15T07:46:58;-0.90;99.90
16829;DHT22;8531;48.078;11.968;2024-01-15T07:49:24;-0.90;99.90
16829;DHT22;8531;48.078;11.968;2024-01-15T07:51:49;-0.80;99.90
16829;DHT22;8531;48.078;11.968;2024-01-15T07:54:15;-0.80;99.90
16829;DHT22;8531;48.078;11.968;2024-01-15T07:56:56;-0.80;99.90
16829;DHT22;8531;48.078;11.968;2024-01-15T07:59:23;-0.80;99.90
16829;DHT22;8531;48.078;11.968;2024-01-15T08:01:49;-0.80;99.90
16829;DHT22;8531;48.078;11.968;2024-01-15T08:04:14;-0.80;99.90
16829;DHT22;8531;48.078;11.968;2024-01-15T08:06:40;-0.80;99.90
16829;DHT22;8531;48.078;11.968;2024-01-15T08:09:06;-0.80;99.90
16829;DHT22;8531;48.078;11.968;2024-01-15T08:11:31;-0.80;99.90
16829;DHT22;8531;48.078;11.968;2024-01-15T08:13:57;-0.80;99.90
16829;DHT22;8531;48.078;11.968;2024-01-15T08:16:23;-0.70;99.90
16829;DHT22;8531;48.078;11.968;2024-01-15T08:18:50;-0.70;99.90
16829;DHT22;8531;48.078;11.968;2024-01-15T08:21:16;-0.70;99.90
16829;DHT22;8531;48.078;11.968;2024-01-15T08:23:42;-0.60;99.90
16829;DHT22;8531;48.078;11.968;2024-01-15T08:26:08;-0.60;99.90
16829;DHT22;8531;48.078;11.968;2024-01-15T08:28:34;-0.60;99.90
16829;DHT22;8531;48.078;11.968;2024-01-15T08:31:00;-0.60;99.90
16829;DHT22;8531;48.078;11.968;2024-01-15T08:33:26;-0.60;99.90
16829;DHT22;8531;48.078;11.968;2024-01-15T08:35:51;-0.60;99.90
16829;DHT22;8531;48.078;11.968;2024-01-15T08:38:19;-0.60;99.90
16829;DHT22;8531;48.078;11.968;2024-01-15T08:40:45;-0.60;99.90
16829;DHT22;8531;48.078;11.968;2024-01-15T08:43:10;-0.60;99.90
16829;DHT22;8531;48.078;11.968;2024-01-15T08:45:36;-0.60;99.90
16829;DHT22;8531;48.078;11.968;2024-01-15T08:48:02;-0.50;99.90
16829;DHT22;8531;48.078;11.968;2024-01-15T08:50:30;-0.50;99.90
16829;DHT22;8531;48.078;11.968;2024-01-15T08:52:57;-0.50;99.90
16829;DHT22;8531;48.078;11.968;2024-01-15T08:55:23;-0.50;99.90
16829;DHT22;8531;48.078;11.968;2024-01-15T08:57:50;-0.40;99.90
16829;DHT22;8531;48.078;11.968;2024-01-15T09:00:16;-0.40;99.90
16829;DHT22;8531;48.078;11.968;2024-01-15T09:02:43;-0.50;99.90
16829;DHT22;8531;48.078;11.968;2024-01-15T09:05:09;-0.50;99.90
16829;DHT22;8531;48.078;11.968;2024-01-15T09:07:34;-0.50;99.90
16829;DHT22;8531;48.078;11.968;2024-01-15T09:10:00;-0.40;99.90
16829;DHT22;8531;48.078;11.968;2024-01-15T09:12:27;-0.40;99.90
16829;DHT22;8531;48.078;11.968;2024-01-15T09:14:53;-0.40;99.90
16829;DHT22;8531;48.078;11.968;2024-01-15T09:17:19;-0.30;99.90
16829;DHT22;8531;48.078;11.968;2024-01-15T09:19:45;-0.30;99.90
16829;DHT22;8531;48.078;11.968;2024-01-15T09:22:13;-0.30;99.90
16829;DHT22;8531;48.078;11.968;2024-01-15T09:24:40;-0.30;99.90
16829;DHT22;8531;48.078;11.968;2024-01-15T09:27:07;-0.40;99.90
16829;DHT22;8531;48.078;11.968;2024-01-15T09:29:32;-0.30;99.90
16829;DHT22;8531;48.078;11.968;2024-01-15T09:31:58;-0.30;99.90
16829;DHT22;8531;48.078;11.968;2024-01-15T09:34:24;-0.20;99.90
16829;DHT22;8531;48.078;11.968;2024-01-15T09:36:50;-0.20;99.90
16829;DHT22;8531;48.078;11.968;2024-01-15T09:39:15;-0.20;99.90
16829;DHT22;8531;48.078;11.968;2024-01-15T09:41:41;-0.10;99.90
16829;DHT22;8531;48.078;11.968;2024-01-15T09:44:08;-0.10;99.90
16829;DHT22;8531;48.078;11.968;2024-01-15T09:46:34;-0.10;99.90
16829;DHT22;8531;48.078;11.968;2024-01-15T09:49:00;-0.10;99.90
16829;DHT22;8531;48.078;11.968;2024-01-15T09:51:30;-0.10;99.90
16829;DHT22;8531;48.078;11.968;2024-01-15T09:53:57;-0.10;99.90
16829;DHT22;8531;48.078;11.968;2024-01-15T09:56:23;-0.10;99.90
16829;DHT22;8531;48.078;11.968;2024-01-15T09:58:50;-0.10;99.90
16829;DHT22;8531;48.078;11.968;2024-01-15T10:01:17;-0.10;99.90
16829;DHT22;8531;48.078;11.968;2024-01-15T10:03:43;-0.10;99.90
16829;DHT22;8531;48.078;11.968;2024-01-15T10:06:09;0.00;99.90
16829;DHT22;8531;48.078;11.968;2024-01-15T10:08:37;0.00;99.90
16829;DHT22;8531;48.078;11.968;2024-01-15T10:11:02;0.00;99.90
16829;DHT22;8531;48.078;11.968;2024-01-15T10:13:30;0.00;99.90
16829;DHT22;8531;48.078;11.968;2024-01-15T10:15:56;0.00;99.90
16829;DHT22;8531;48.078;11.968;2024-01-15T10:18:23;0.00;99.90
16829;DHT22;8531;48.078;11.968;2024-01-15T10:20:49;0.10;99.90
16829;DHT22;8531;48.078;11.968;2024-01-15T10:23:16;0.10;99.90
16829;DHT22;8531;48.078;11.968;2024-01-15T10:25:44;0.10;99.90
16829;DHT22;8531;48.078;11.968;2024-01-15T10:28:10;0.10;99.90
16829;DHT22;8531;48.078;11.968;2024-01-15T10:30:35;0.20;99.90
16829;DHT22;8531;48.078;11.968;2024-01-15T10:33:03;0.20;99.90
16829;DHT22;8531;48.078;11.968;2024-01-15T10:35:32;0.20;99.90
16829;DHT22;8531;48.078;11.968;2024-01-15T10:38:01;0.10;99.90
16829;DHT22;8531;48.078;11.968;2024-01-15T10:40:28;0.10;99.90
16829;DHT22;8531;48.078;11.968;2024-01-15T10:42:54;0.10;99.90
16829;DHT22;8531;48.078;11.968;2024-01-15T10:45:20;0.10;99.90
16829;DHT22;8531;48.078;11.968;2024-01-15T10:47:46;0.20;99.90
16829;DHT22;8531;48.078;11.968;2024-01-15T10:50:12;0.20;99.90
16829;DHT22;8531;48.078;11.968;2024-01-15T10:52:39;0.20;99.90
16829;DHT22;8531;48.078;11.968;2024-01-15T10:55:09;0.20;99.90
16829;DHT22;8531;48.078;11.968;2024-01-15T10:57:38;0.20;99.90
16829;DHT22;8531;48.078;11.968;2024-01-15T11:00:05;0.20;99.90
16829;DHT22;8531;48.078;11.968;2024-01-15T11:02:36;0.20;99.90
16829;DHT22;8531;48.078;11.968;2024-01-15T11:05:02;0.30;99.90
16829;DHT22;8531;48.078;11.968;2024-01-15T11:07:30;0.30;99.90
16829;DHT22;8531;48.078;11.968;2024-01-15T11:09:56;0.30;99.90
16829;DHT22;8531;48.078;11.968;2024-01-15T11:12:24;0.30;99.90
16829;DHT22;8531;48.078;11.968;2024-01-15T11:14:50;0.30;99.90
16829;DHT22;8531;48.078;11.968;2024-01-15T11:17:17;0.30;99.90
16829;DHT22;8531;48.078;11.968;2024-01-15T11:19:50;0.30;99.90
16829;DHT22;8531;48.078;11.968;2024-01-15T11:25:02;0.30;99.90
16829;DHT22;8531;48.078;11.968;2024-01-15T11:27:44;0.40;99.90
16829;DHT22;8531;48.078;11.968;2024-01-15T11:30:12;0.40;99.90
16829;DHT22;8531;48.078;11.968;2024-01-15T11:32:39;0.50;99.90
16829;DHT22;8531;48.078;11.968;2024-01-15T11:35:08;0.60;99.90
16829;DHT22;8531;48.078;11.968;2024-01-15T11:40:36;0.60;99.90
16829;DHT22;8531;48.078;11.968;2024-01-15T11:43:07;0.60;99.90
16829;DHT22;8531;48.078;11.968;2024-01-15T11:45:35;0.70;99.90
16829;DHT22;8531;48.078;11.968;2024-01-15T11:50:44;0.80;99.90
16829;DHT22;8531;48.078;11.968;2024-01-15T11:53:16;0.80;99.90
16829;DHT22;8531;48.078;11.968;2024-01-15T11:55:45;0.90;99.90
16829;DHT22;8531;48.078;11.968;2024-01-15T11:58:11;0.90;99.90
16829;DHT22;8531;48.078;11.968;2024-01-15T12:00:45;0.90;99.90
16829;DHT22;8531;48.078;11.968;2024-01-15T12:03:12;0.90;99.90
16829;DHT22;8531;48.078;11.968;2024-01-15T12:05:38;0.90;99.90
16829;DHT22;8531;48.078;11.968;2024-01-15T12:08:04;0.90;99.90
16829;DHT22;8531;48.078;11.968;2024-01-15T12:10:40;0.80;99.90
16829;DHT22;8531;48.078;11.968;2024-01-15T12:13:16;0.80;99.90
16829;DHT22;8531;48.078;11.968;2024-01-15T12:15:44;0.70;99.90
16829;DHT22;8531;48.078;11.968;2024-01-15T12:18:11;0.70;99.90
16829;DHT22;8531;48.078;11.968;2024-01-15T12:20:37;0.80;99.90
16829;DHT22;8531;48.078;11.968;2024-01-15T12:23:03;0.80;99.90
16829;DHT22;8531;48.078;11.968;2024-01-15T12:25:30;0.80;99.90
16829;DHT22;8531;48.078;11.968;2024-01-15T12:27:56;0.90;99.90
16829;DHT22;8531;48.078;11.968;2024-01-15T12:30:22;0.90;99.90
16829;DHT22;8531;48.078;11.968;2024-01-15T12:32:48;0.90;99.90
16829;DHT22;8531;48.078;11.968;2024-01-15T12:35:14;0.90;99.90
16829;DHT22;8531;48.078;11.968;2024-01-15T12:37:41;0.90;99.90
16829;DHT22;8531;48.078;11.968;2024-01-15T12:40:08;0.90;99.90
16829;DHT22;8531;48.078;11.968;2024-01-15T12:42:44;0.90;99.90
16829;DHT22;8531;48.078;11.968;2024-01-15T12:45:11;0.90;99.90
16829;DHT22;8531;48.078;11.968;2024-01-15T12:47:38;0.90;99.90
16829;DHT22;8531;48.078;11.968;2024-01-15T12:50:11;0.90;99.90
16829;DHT22;8531;48.078;11.968;2024-01-15T12:52:38;0.90;99.90
16829;DHT22;8531;48.078;11.968;2024-01-15T12:55:06;0.90;99.90
16829;DHT22;8531;48.078;11.968;2024-01-15T12:57:34;0.80;99.90
16829;DHT22;8531;48.078;11.968;2024-01-15T12:59:59;0.80;99.90
16829;DHT22;8531;48.078;11.968;2024-01-15T13:02:25;0.80;99.90
16829;DHT22;8531;48.078;11.968;2024-01-15T13:04:51;0.80;99.90
16829;DHT22;8531;48.078;11.968;2024-01-15T13:07:17;0.90;99.90
16829;DHT22;8531;48.078;11.968;2024-01-15T13:09:42;1.00;99.90
16829;DHT22;8531;48.078;11.968;2024-01-15T13:12:08;1.00;99.90
16829;DHT22;8531;48.078;11.968;2024-01-15T13:14:34;1.00;99.90
16829;DHT22;8531;48.078;11.968;2024-01-15T13:17:00;1.00;99.90
16829;DHT22;8531;48.078;11.968;2024-01-15T13:19:26;1.00;99.90
16829;DHT22;8531;48.078;11.968;2024-01-15T13:21:53;1.10;99.90
16829;DHT22;8531;48.078;11.968;2024-01-15T13:24:20;1.10;99.90
16829;DHT22;8531;48.078;11.968;2024-01-15T13:26:45;1.00;99.90
16829;DHT22;8531;48.078;11.968;2024-01-15T13:29:11;1.00;99.90
16829;DHT22;8531;48.078;11.968;2024-01-15T13:31:37;1.00;99.90
16829;DHT22;8531;48.078;11.968;2024-01-15T13:34:03;1.10;99.90
16829;DHT22;8531;48.078;11.968;2024-01-15T13:36:29;1.10;99.90
16829;DHT22;8531;48.078;11.968;2024-01-15T13:38:55;1.20;99.90
16829;DHT22;8531;48.078;11.968;2024-01-15T13:41:21;1.20;99.90
16829;DHT22;8531;48.078;11.968;2024-01-15T13:43:54;1.20;99.90
16829;DHT22;8531;48.078;11.968;2024-01-15T13:46:24;1.30;99.90
16829;DHT22;8531;48.078;11.968;2024-01-15T13:48:52;1.40;99.90
16829;DHT22;8531;48.078;11.968;2024-01-15T13:51:18;1.30;99.90
16829;DHT22;8531;48.078;11.968;2024-01-15T13:53:43;1.30;99.90
16829;DHT22;8531;48.078;11.968;2024-01-15T13:56:09;1.20;99.90
16829;DHT22;8531;48.078;11.968;2024-01-15T13:58:38;1.20;99.90
16829;DHT22;8531;48.078;11.968;2024-01-15T14:01:03;1.20;99.90
16829;DHT22;8531;48.078;11.968;2024-01-15T14:03:31;1.20;99.90
16829;DHT22;8531;48.078;11.968;2024-01-15T14:05:57;1.20;99.90
16829;DHT22;8531;48.078;11.968;2024-01-15T14:08:23;1.20;99.90
16829;DHT22;8531;48.078;11.968;2024-01-15T14:10:49;1.20;99.90
16829;DHT22;8531;48.078;11.968;2024-01-15T14:13:15;1.20;99.90
16829;DHT22;8531;48.078;11.968;2024-01-15T14:15:40;1.20;99.90
16829;DHT22;8531;48.078;11.968;2024-01-15T14:18:06;1.20;99.90
16829;DHT22;8531;48.078;11.968;2024-01-15T14:20:33;1.10;99.90
16829;DHT22;8531;48.078;11.968;2024-01-15T14:22:58;1.10;99.90
16829;DHT22;8531;48.078;11.968;2024-01-15T14:25:24;1.10;99.90
16829;DHT22;8531;48.078;11.968;2024-01-15T14:27:50;1.10;99.90
16829;DHT22;8531;48.078;11.968;2024-01-15T14:30:16;1.00;99.90
16829;DHT22;8531;48.078;11.968;2024-01-15T14:32:45;1.10;99.90
16829;DHT22;8531;48.078;11.968;2024-01-15T14:35:10;1.00;99.90
16829;DHT22;8531;48.078;11.968;2024-01-15T14:37:39;1.10;99.90
16829;DHT22;8531;48.078;11.968;2024-01-15T14:40:08;1.10;99.90
16829;DHT22;8531;48.078;11.968;2024-01-15T14:42:35;1.10;99.90
16829;DHT22;8531;48.078;11.968;2024-01-15T14:45:02;1.10;99.90
16829;DHT22;8531;48.078;11.968;2024-01-15T14:47:30;1.00;99.90
16829;DHT22;8531;48.078;11.968;2024-01-15T14:49:56;1.10;99.90
16829;DHT22;8531;48.078;11.968;2024-01-15T14:52:23;1.10;99.90
16829;DHT22;8531;48.078;11.968;2024-01-15T14:54:49;1.10;99.90
16829;DHT22;8531;48.078;11.968;2024-01-15T14:57:15;1.10;99.90
16829;DHT22;8531;48.078;11.968;2024-01-15T14:59:40;1.10;99.90
16829;DHT22;8531;48.078;11.968;2024-01-15T15:02:06;1.00;99.90
16829;DHT22;8531;48.078;11.968;2024-01-15T15:04:32;1.00;99.90
16829;DHT22;8531;48.078;11.968;2024-01-15T15:06:58;1.10;99.90
16829;DHT22;8531;48.078;11.968;2024-01-15T15:09:24;1.00;99.90
16829;DHT22;8531;48.078;11.968;2024-01-15T15:11:50;1.00;99.90
16829;DHT22;8531;48.078;11.968;2024-01-15T15:14:17;1.00;99.90
16829;DHT22;8531;48.078;11.968;2024-01-15T15:16:43;1.00;99.90
16829;DHT22;8531;48.078;11.968;2024-01-15T15:19:09;1.00;99.90
16829;DHT22;8531;48.078;11.968;2024-01-15T15:21:34;1.00;99.90
16829;DHT22;8531;48.078;11.968;2024-01-15T15:24:00;1.00;99.90
16829;DHT22;8531;48.078;11.968;2024-01-15T15:26:26;1.00;99.90
16829;DHT22;8531;48.078;11.968;2024-01-15T15:28:51;0.90;99.90
16829;DHT22;8531;48.078;11.968;2024-01-15T15:31:17;0.90;99.90
16829;DHT22;8531;48.078;11.968;2024-01-15T15:33:43;0.90;99.90
16829;DHT22;8531;48.078;11.968;2024-01-15T15:36:10;0.90;99.90
16829;DHT22;8531;48.078;11.968;2024-01-15T15:38:35;0.90;99.90
16829;DHT22;8531;48.078;11.968;2024-01-15T15:41:01;0.90;99.90